sensor_id;sensor_type;location;lat;lon;timestamp;pressure;altitude;pressure_sealevel;temperature;humidity
83512;BME280;73446;0.000;0.000;2023-12-14T00:02:39;97673.09;;;21.03;35.91
83512;BME280;73446;0.000;0.000;2023-12-14T00:05:23;97681.41;;;21.02;36.10
83512;BME280;73446;0.000;0.000;2023-12-14T00:08:07;97676.84;;;21.02;36.26
83512;BME280;73446;0.000;0.000;2023-12-14T00:10:51;97678.75;;;21.02;36.20
83512;BME280;73446;0.000;0.000;2023-12-14T00:13:34;97685.97;;;21.01;36.01
83512;BME280;73446;0.000;0.000;2023-12-14T00:16:18;97685.97;;;21.01;36.23
83512;BME280;73446;0.000;0.000;2023-12-14T00:19:03;97693.97;;;21.01;36.02
83512;BME280;73446;0.000;0.000;2023-12-14T00:21:47;97696.66;;;21.01;36.01
83512;BME280;73446;0.000;0.000;2023-12-14T00:24:31;97706.84;;;20.99;36.14
83512;BME280;73446;0.000;0.000;2023-12-14T00:27:15;97704.19;;;20.99;36.01
83512;BME280;73446;0.000;0.000;2023-12-14T00:29:59;97710.91;;;20.96;35.97
83512;BME280;73446;0.000;0.000;2023-12-14T00:32:43;97711.69;;;20.97;36.07
83512;BME280;73446;0.000;0.000;2023-12-14T00:35:27;97720.03;;;20.95;36.13
83512;BME280;73446;0.000;0.000;2023-12-14T00:38:11;97712.00;;;20.95;36.19
83512;BME280;73446;0.000;0.000;2023-12-14T00:40:55;97724.56;;;20.95;36.14
83512;BME280;73446;0.000;0.000;2023-12-14T00:43:41;97719.56;;;20.93;36.02
83512;BME280;73446;0.000;0.000;2023-12-14T00:46:26;97726.00;;;20.92;36.04
83512;BME280;73446;0.000;0.000;2023-12-14T00:49:10;97729.75;;;20.91;36.52
83512;BME280;73446;0.000;0.000;2023-12-14T00:51:54;97726.00;;;20.92;35.97
83512;BME280;73446;0.000;0.000;2023-12-14T00:54:38;97737.47;;;20.93;36.12
83512;BME280;73446;0.000;0.000;2023-12-14T00:57:22;97737.47;;;20.93;36.18
83512;BME280;73446;0.000;0.000;2023-12-14T01:00:07;97751.91;;;20.92;36.14
83512;BME280;73446;0.000;0.000;2023-12-14T01:02:53;97751.41;;;20.90;36.24
83512;BME280;73446;0.000;0.000;2023-12-14T01:05:37;97759.44;;;20.90;35.96
83512;BME280;73446;0.000;0.000;2023-12-14T01:08:21;97762.41;;;20.88;36.12
83512;BME280;73446;0.000;0.000;2023-12-14T01:11:05;97766.94;;;20.88;36.24
83512;BME280;73446;0.000;0.000;2023-12-14T01:13:49;97767.75;;;20.88;36.24
83512;BME280;73446;0.000;0.000;2023-12-14T01:16:33;97776.06;;;20.87;36.12
83512;BME280;73446;0.000;0.000;2023-12-14T01:19:20;97777.63;;;20.88;36.10
83512;BME280;73446;0.000;0.000;2023-12-14T01:22:04;97775.28;;;20.86;36.10
83512;BME280;73446;0.000;0.000;2023-12-14T01:24:48;97784.06;;;20.87;36.31
83512;BME280;73446;0.000;0.000;2023-12-14T01:27:31;97781.22;;;20.83;36.02
83512;BME280;73446;0.000;0.000;2023-12-14T01:30:16;97789.53;;;20.82;36.04
83512;BME280;73446;0.000;0.000;2023-12-14T01:32:59;97792.97;;;20.82;36.13
83512;BME280;73446;0.000;0.000;2023-12-14T01:35:43;97796.75;;;20.81;36.14
83512;BME280;73446;0.000;0.000;2023-12-14T01:38:27;97806.34;;;20.82;36.10
83512;BME280;73446;0.000;0.000;2023-12-14T01:41:11;97814.63;;;20.81;36.35
83512;BME280;73446;0.000;0.000;2023-12-14T01:43:55;97817.59;;;20.79;36.29
83512;BME280;73446;0.000;0.000;2023-12-14T01:46:39;97822.16;;;20.79;36.10
83512;BME280;73446;0.000;0.000;2023-12-14T01:49:23;97822.94;;;20.79;36.31
83512;BME280;73446;0.000;0.000;2023-12-14T01:52:07;97828.63;;;20.78;36.35
83512;BME280;73446;0.000;0.000;2023-12-14T01:54:50;97827.81;;;20.77;36.36
83512;BME280;73446;0.000;0.000;2023-12-14T01:57:35;97832.38;;;20.77;36.15
83512;BME280;73446;0.000;0.000;2023-12-14T02:00:36;97827.34;;;20.75;36.41
83512;BME280;73446;0.000;0.000;2023-12-14T02:03:21;97844.16;;;20.76;36.48
83512;BME280;73446;0.000;0.000;2023-12-14T02:06:06;97843.34;;;20.75;36.15
83512;BME280;73446;0.000;0.000;2023-12-14T02:08:52;97845.53;;;20.73;36.19
83512;BME280;73446;0.000;0.000;2023-12-14T02:11:36;97855.41;;;20.73;36.44
83512;BME280;73446;0.000;0.000;2023-12-14T02:14:21;97855.41;;;20.73;36.16
83512;BME280;73446;0.000;0.000;2023-12-14T02:17:06;97863.13;;;20.74;36.07
83512;BME280;73446;0.000;0.000;2023-12-14T02:19:50;97866.09;;;20.73;36.14
83512;BME280;73446;0.000;0.000;2023-12-14T02:22:54;97864.03;;;20.70;36.11
83512;BME280;73446;0.000;0.000;2023-12-14T02:25:38;97870.44;;;20.69;36.27
83512;BME280;73446;0.000;0.000;2023-12-14T02:28:21;97864.31;;;20.68;36.17
83512;BME280;73446;0.000;0.000;2023-12-14T02:31:06;97859.47;;;20.70;36.24
83512;BME280;73446;0.000;0.000;2023-12-14T02:33:50;97866.19;;;20.68;36.16
83512;BME280;73446;0.000;0.000;2023-12-14T02:36:34;97866.69;;;20.70;36.18
83512;BME280;73446;0.000;0.000;2023-12-14T02:39:18;97865.13;;;20.69;36.36
83512;BME280;73446;0.000;0.000;2023-12-14T02:42:02;97871.53;;;20.68;36.36
83512;BME280;73446;0.000;0.000;2023-12-14T02:44:46;97876.09;;;20.67;36.19
83512;BME280;73446;0.000;0.000;2023-12-14T02:47:30;97880.03;;;20.70;36.23
83512;BME280;73446;0.000;0.000;2023-12-14T02:50:14;97882.72;;;20.70;36.09
83512;BME280;73446;0.000;0.000;2023-12-14T02:52:58;97890.72;;;20.70;36.17
83512;BME280;73446;0.000;0.000;2023-12-14T02:55:42;97898.13;;;20.73;36.21
83512;BME280;73446;0.000;0.000;2023-12-14T02:58:26;97894.38;;;20.74;36.09
83512;BME280;73446;0.000;0.000;2023-12-14T03:01:10;97900.50;;;20.74;36.01
83512;BME280;73446;0.000;0.000;2023-12-14T03:03:54;97903.19;;;20.74;35.98
83512;BME280;73446;0.000;0.000;2023-12-14T03:06:38;97903.97;;;20.75;36.18
83512;BME280;73446;0.000;0.000;2023-12-14T03:09:22;97912.78;;;20.75;36.13
83512;BME280;73446;0.000;0.000;2023-12-14T03:12:06;97915.44;;;20.75;35.63
83512;BME280;73446;0.000;0.000;2023-12-14T03:14:49;97923.16;;;20.77;35.83
83512;BME280;73446;0.000;0.000;2023-12-14T03:17:33;97925.03;;;20.76;35.58
83512;BME280;73446;0.000;0.000;2023-12-14T03:20:17;97933.50;;;20.78;35.80
83512;BME280;73446;0.000;0.000;2023-12-14T03:23:01;97937.75;;;20.79;35.64
83512;BME280;73446;0.000;0.000;2023-12-14T03:25:45;97936.97;;;20.79;35.34
83512;BME280;73446;0.000;0.000;2023-12-14T03:28:29;97934.31;;;20.79;35.36
83512;BME280;73446;0.000;0.000;2023-12-14T03:31:13;97939.66;;;20.79;35.51
83512;BME280;73446;0.000;0.000;2023-12-14T03:33:57;97942.03;;;20.80;35.59
83512;BME280;73446;0.000;0.000;2023-12-14T03:36:41;97954.56;;;20.80;35.37
83512;BME280;73446;0.000;0.000;2023-12-14T03:39:25;97944.69;;;20.80;35.69
83512;BME280;73446;0.000;0.000;2023-12-14T03:42:09;97950.03;;;20.80;35.47
83512;BME280;73446;0.000;0.000;2023-12-14T03:44:53;97957.75;;;20.82;35.10
83512;BME280;73446;0.000;0.000;2023-12-14T03:47:37;97959.63;;;20.81;35.57
83512;BME280;73446;0.000;0.000;2023-12-14T03:50:21;97953.78;;;20.79;35.67
83512;BME280;73446;0.000;0.000;2023-12-14T03:53:04;97967.13;;;20.79;36.10
83512;BME280;73446;0.000;0.000;2023-12-14T03:55:48;97975.47;;;20.78;36.04
83512;BME280;73446;0.000;0.000;2023-12-14T03:58:32;97975.47;;;20.78;36.22
83512;BME280;73446;0.000;0.000;2023-12-14T04:01:20;97985.38;;;20.77;35.91
83512;BME280;73446;0.000;0.000;2023-12-14T04:04:07;97994.16;;;20.78;35.81
83512;BME280;73446;0.000;0.000;2023-12-14T04:06:51;97994.94;;;20.78;35.90
83512;BME280;73446;0.000;0.000;2023-12-14T04:09:36;98001.38;;;20.77;36.02
83512;BME280;73446;0.000;0.000;2023-12-14T04:12:20;98005.94;;;20.77;36.02
83512;BME280;73446;0.000;0.000;2023-12-14T04:15:06;98008.59;;;20.77;36.27
83512;BME280;73446;0.000;0.000;2023-12-14T04:17:50;98008.59;;;20.77;36.03
83512;BME280;73446;0.000;0.000;2023-12-14T04:20:34;98014.72;;;20.77;36.19
83512;BME280;73446;0.000;0.000;2023-12-14T04:23:18;98021.94;;;20.77;36.10
83512;BME280;73446;0.000;0.000;2023-12-14T04:26:02;98023.03;;;20.76;36.06
83512;BME280;73446;0.000;0.000;2023-12-14T04:28:46;98025.41;;;20.77;36.12
83512;BME280;73446;0.000;0.000;2023-12-14T04:31:30;98032.63;;;20.77;36.40
83512;BME280;73446;0.000;0.000;2023-12-14T04:34:14;98031.84;;;20.76;35.94
83512;BME280;73446;0.000;0.000;2023-12-14T04:36:59;98036.38;;;20.76;36.21
83512;BME280;73446;0.000;0.000;2023-12-14T04:39:43;98035.59;;;20.75;36.15
83512;BME280;73446;0.000;0.000;2023-12-14T04:42:27;98047.06;;;20.76;36.16
83512;BME280;73446;0.000;0.000;2023-12-14T04:45:11;98044.41;;;20.76;36.17
83512;BME280;73446;0.000;0.000;2023-12-14T04:47:56;98056.97;;;20.75;36.07
83512;BME280;73446;0.000;0.000;2023-12-14T04:50:40;98060.41;;;20.76;36.22
83512;BME280;73446;0.000;0.000;2023-12-14T04:53:24;98071.09;;;20.76;36.26
83512;BME280;73446;0.000;0.000;2023-12-14T04:56:11;98066.84;;;20.75;36.29
83512;BME280;73446;0.000;0.000;2023-12-14T04:58:55;98072.19;;;20.75;36.17
83512;BME280;73446;0.000;0.000;2023-12-14T05:01:39;98072.19;;;20.75;36.15
83512;BME280;73446;0.000;0.000;2023-12-14T05:04:24;98077.53;;;20.75;36.11
83512;BME280;73446;0.000;0.000;2023-12-14T05:07:09;98079.41;;;20.74;36.26
83512;BME280;73446;0.000;0.000;2023-12-14T05:09:52;98088.22;;;20.75;36.09
83512;BME280;73446;0.000;0.000;2023-12-14T05:12:37;98101.56;;;20.75;36.17
83512;BME280;73446;0.000;0.000;2023-12-14T05:15:21;98105.03;;;20.75;36.28
83512;BME280;73446;0.000;0.000;2023-12-14T05:18:05;98107.19;;;20.73;36.34
83512;BME280;73446;0.000;0.000;2023-12-14T05:20:50;98114.13;;;20.74;36.16
83512;BME280;73446;0.000;0.000;2023-12-14T05:23:35;98130.13;;;20.74;36.17
83512;BME280;73446;0.000;0.000;2023-12-14T05:26:19;98130.13;;;20.74;36.23
83512;BME280;73446;0.000;0.000;2023-12-14T05:29:02;98131.22;;;20.73;36.24
83512;BME280;73446;0.000;0.000;2023-12-14T05:31:46;98140.03;;;20.74;36.34
83512;BME280;73446;0.000;0.000;2023-12-14T05:34:30;98144.56;;;20.73;36.23
83512;BME280;73446;0.000;0.000;2023-12-14T05:37:14;98144.56;;;20.73;36.17
83512;BME280;73446;0.000;0.000;2023-12-14T05:39:58;98144.56;;;20.73;36.06
83512;BME280;73446;0.000;0.000;2023-12-14T05:42:42;98156.03;;;20.74;36.40
83512;BME280;73446;0.000;0.000;2023-12-14T05:45:26;98153.66;;;20.72;36.22
83512;BME280;73446;0.000;0.000;2023-12-14T05:48:10;98169.69;;;20.72;36.29
83512;BME280;73446;0.000;0.000;2023-12-14T05:50:54;98173.16;;;20.73;36.23
83512;BME280;73446;0.000;0.000;2023-12-14T05:53:38;98175.03;;;20.72;36.09
83512;BME280;73446;0.000;0.000;2023-12-14T05:56:26;98181.44;;;20.71;36.48
83512;BME280;73446;0.000;0.000;2023-12-14T05:59:10;98193.22;;;20.70;36.37
83512;BME280;73446;0.000;0.000;2023-12-14T06:02:00;98193.72;;;20.72;36.17
83512;BME280;73446;0.000;0.000;2023-12-14T06:04:45;98192.91;;;20.72;36.22
83512;BME280;73446;0.000;0.000;2023-12-14T06:07:29;98202.50;;;20.73;36.95
83512;BME280;73446;0.000;0.000;2023-12-14T06:10:13;98213.19;;;20.73;37.00
83512;BME280;73446;0.000;0.000;2023-12-14T06:12:56;98211.03;;;20.75;36.88
83512;BME280;73446;0.000;0.000;2023-12-14T06:15:41;98214.69;;;20.79;37.22
83512;BME280;73446;0.000;0.000;2023-12-14T06:18:25;98215.19;;;20.81;37.38
83512;BME280;73446;0.000;0.000;2023-12-14T06:21:11;98227.44;;;20.82;37.59
83512;BME280;73446;0.000;0.000;2023-12-14T06:23:56;98237.56;;;20.85;37.92
83512;BME280;73446;0.000;0.000;2023-12-14T06:26:41;98230.84;;;20.87;37.89
83512;BME280;73446;0.000;0.000;2023-12-14T06:29:26;98245.78;;;20.88;38.11
83512;BME280;73446;0.000;0.000;2023-12-14T06:32:10;98240.94;;;20.90;37.85
83512;BME280;73446;0.000;0.000;2023-12-14T06:34:54;98248.44;;;20.88;38.03
83512;BME280;73446;0.000;0.000;2023-12-14T06:37:38;98254.09;;;20.87;37.86
83512;BME280;73446;0.000;0.000;2023-12-14T06:40:25;98255.16;;;20.86;37.38
83512;BME280;73446;0.000;0.000;2023-12-14T06:43:09;98258.91;;;20.85;37.20
83512;BME280;73446;0.000;0.000;2023-12-14T06:45:56;98268.53;;;20.86;36.99
83512;BME280;73446;0.000;0.000;2023-12-14T06:48:40;98263.97;;;20.86;36.48
83512;BME280;73446;0.000;0.000;2023-12-14T06:51:24;98264.78;;;20.87;36.31
83512;BME280;73446;0.000;0.000;2023-12-14T06:54:08;98274.38;;;20.88;36.31
83512;BME280;73446;0.000;0.000;2023-12-14T06:56:52;98285.84;;;20.88;36.17
83512;BME280;73446;0.000;0.000;2023-12-14T06:59:36;98283.97;;;20.89;36.21
83512;BME280;73446;0.000;0.000;2023-12-14T07:02:19;98297.31;;;20.89;35.98
83512;BME280;73446;0.000;0.000;2023-12-14T07:05:07;98307.72;;;20.90;35.92
83512;BME280;73446;0.000;0.000;2023-12-14T07:07:52;98314.94;;;20.90;35.89
83512;BME280;73446;0.000;0.000;2023-12-14T07:10:36;98321.88;;;20.91;35.71
83512;BME280;73446;0.000;0.000;2023-12-14T07:13:20;98326.13;;;20.92;35.70
83512;BME280;73446;0.000;0.000;2023-12-14T07:16:09;98328.81;;;20.92;35.77
83512;BME280;73446;0.000;0.000;2023-12-14T07:18:53;98332.25;;;20.92;35.60
83512;BME280;73446;0.000;0.000;2023-12-14T07:21:37;98348.00;;;20.94;35.55
83512;BME280;73446;0.000;0.000;2023-12-14T07:24:21;98339.19;;;20.93;35.65
83512;BME280;73446;0.000;0.000;2023-12-14T07:27:05;98348.78;;;20.94;35.62
83512;BME280;73446;0.000;0.000;2023-12-14T07:29:49;98344.81;;;20.92;35.68
83512;BME280;73446;0.000;0.000;2023-12-14T07:32:33;98356.66;;;20.86;36.09
83512;BME280;73446;0.000;0.000;2023-12-14T07:35:18;98365.53;;;20.81;36.26
83512;BME280;73446;0.000;0.000;2023-12-14T07:38:02;98378.09;;;20.81;36.37
83512;BME280;73446;0.000;0.000;2023-12-14T07:40:46;98376.72;;;20.83;36.43
83512;BME280;73446;0.000;0.000;2023-12-14T07:43:30;98373.25;;;20.83;36.32
83512;BME280;73446;0.000;0.000;2023-12-14T07:46:14;98383.94;;;20.83;36.27
83512;BME280;73446;0.000;0.000;2023-12-14T07:48:58;98389.28;;;20.83;36.08
83512;BME280;73446;0.000;0.000;2023-12-14T07:51:42;98390.34;;;20.82;36.25
83512;BME280;73446;0.000;0.000;2023-12-14T07:54:26;98389.28;;;20.83;36.27
83512;BME280;73446;0.000;0.000;2023-12-14T07:57:13;98405.31;;;20.83;35.98
83512;BME280;73446;0.000;0.000;2023-12-14T07:59:57;98406.38;;;20.82;36.19
83512;BME280;73446;0.000;0.000;2023-12-14T08:02:43;98418.13;;;20.81;36.01
83512;BME280;73446;0.000;0.000;2023-12-14T08:05:27;98410.13;;;20.81;36.02
83512;BME280;73446;0.000;0.000;2023-12-14T08:08:12;98417.34;;;20.80;35.94
83512;BME280;73446;0.000;0.000;2023-12-14T08:10:55;98424.56;;;20.80;35.96
83512;BME280;73446;0.000;0.000;2023-12-14T08:13:40;98434.16;;;20.81;36.06
83512;BME280;73446;0.000;0.000;2023-12-14T08:16:27;98439.50;;;20.81;35.89
83512;BME280;73446;0.000;0.000;2023-12-14T08:19:11;98448.59;;;20.80;36.11
83512;BME280;73446;0.000;0.000;2023-12-14T08:21:55;98446.72;;;20.80;36.01
83512;BME280;73446;0.000;0.000;2023-12-14T08:24:39;98447.00;;;20.79;36.25
83512;BME280;73446;0.000;0.000;2023-12-14T08:27:24;98456.59;;;20.80;36.14
83512;BME280;73446;0.000;0.000;2023-12-14T08:30:08;98461.94;;;20.80;36.34
83512;BME280;73446;0.000;0.000;2023-12-14T08:32:52;98471.84;;;20.79;36.48
83512;BME280;73446;0.000;0.000;2023-12-14T08:35:37;98481.72;;;20.79;36.67
83512;BME280;73446;0.000;0.000;2023-12-14T08:38:21;98489.16;;;20.82;36.47
83512;BME280;73446;0.000;0.000;2023-12-14T08:41:05;98496.09;;;20.83;36.45
83512;BME280;73446;0.000;0.000;2023-12-14T08:43:50;98489.41;;;20.85;36.45
83512;BME280;73446;0.000;0.000;2023-12-14T08:46:41;98506.22;;;20.86;36.24
83512;BME280;73446;0.000;0.000;2023-12-14T08:49:26;98518.50;;;20.87;36.54
83512;BME280;73446;0.000;0.000;2023-12-14T08:52:10;98516.34;;;20.89;36.38
83512;BME280;73446;0.000;0.000;2023-12-14T08:54:55;98532.09;;;20.90;36.64
83512;BME280;73446;0.000;0.000;2023-12-14T08:57:39;98533.88;;;20.95;37.14
83512;BME280;73446;0.000;0.000;2023-12-14T09:00:23;98539.22;;;20.95;37.25
83512;BME280;73446;0.000;0.000;2023-12-14T09:03:07;98534.66;;;20.95;37.05
83512;BME280;73446;0.000;0.000;2023-12-14T09:05:51;98536.78;;;20.99;36.36
83512;BME280;73446;0.000;0.000;2023-12-14T09:08:36;98546.91;;;21.02;36.73
83512;BME280;73446;0.000;0.000;2023-12-14T09:11:20;98549.56;;;21.02;36.81
83512;BME280;73446;0.000;0.000;2023-12-14T09:14:04;98554.63;;;21.03;36.56
83512;BME280;73446;0.000;0.000;2023-12-14T09:16:48;98563.16;;;21.05;36.62
83512;BME280;73446;0.000;0.000;2023-12-14T09:19:32;98552.97;;;21.07;36.65
83512;BME280;73446;0.000;0.000;2023-12-14T09:22:16;98558.84;;;21.09;36.64
83512;BME280;73446;0.000;0.000;2023-12-14T09:25:01;98556.97;;;21.10;36.53
83512;BME280;73446;0.000;0.000;2023-12-14T09:27:45;98564.66;;;21.11;36.67
83512;BME280;73446;0.000;0.000;2023-12-14T09:30:29;98571.31;;;21.14;36.28
83512;BME280;73446;0.000;0.000;2023-12-14T09:33:14;98589.22;;;21.13;36.18
83512;BME280;73446;0.000;0.000;2023-12-14T09:35:58;98599.63;;;21.15;36.22
83512;BME280;73446;0.000;0.000;2023-12-14T09:38:41;98604.19;;;21.14;36.13
83512;BME280;73446;0.000;0.000;2023-12-14T09:41:25;98616.47;;;21.15;36.15
83512;BME280;73446;0.000;0.000;2023-12-14T09:44:10;98618.63;;;21.13;36.08
83512;BME280;73446;0.000;0.000;2023-12-14T09:46:54;98627.84;;;21.02;36.65
83512;BME280;73446;0.000;0.000;2023-12-14T09:49:39;98623.91;;;20.94;37.20
83512;BME280;73446;0.000;0.000;2023-12-14T09:52:26;98626.81;;;20.98;37.07
83512;BME280;73446;0.000;0.000;2023-12-14T09:55:11;98637.41;;;21.08;36.47
83512;BME280;73446;0.000;0.000;2023-12-14T09:57:55;98642.16;;;21.11;35.91
83512;BME280;73446;0.000;0.000;2023-12-14T10:00:40;98642.66;;;21.13;35.72
83512;BME280;73446;0.000;0.000;2023-12-14T10:03:25;98645.34;;;21.13;35.60
83512;BME280;73446;0.000;0.000;2023-12-14T10:06:11;98650.41;;;21.15;35.68
83512;BME280;73446;0.000;0.000;2023-12-14T10:08:56;98655.47;;;21.16;35.46
83512;BME280;73446;0.000;0.000;2023-12-14T10:11:41;98654.66;;;21.16;35.42
83512;BME280;73446;0.000;0.000;2023-12-14T10:14:25;98651.72;;;21.17;35.26
83512;BME280;73446;0.000;0.000;2023-12-14T10:17:20;98649.84;;;21.18;35.34
83512;BME280;73446;0.000;0.000;2023-12-14T10:20:05;98662.13;;;21.19;35.37
83512;BME280;73446;0.000;0.000;2023-12-14T10:22:50;98661.06;;;21.20;35.31
83512;BME280;73446;0.000;0.000;2023-12-14T10:25:35;98658.66;;;21.18;35.33
83512;BME280;73446;0.000;0.000;2023-12-14T10:28:19;98660.28;;;21.19;35.14
83512;BME280;73446;0.000;0.000;2023-12-14T10:31:04;98664.25;;;21.22;34.97
83512;BME280;73446;0.000;0.000;2023-12-14T10:33:49;98657.03;;;21.22;35.27
83512;BME280;73446;0.000;0.000;2023-12-14T10:36:34;98667.44;;;21.24;35.25
83512;BME280;73446;0.000;0.000;2023-12-14T10:39:22;98667.16;;;21.25;35.13
83512;BME280;73446;0.000;0.000;2023-12-14T10:42:08;98669.84;;;21.25;35.23
83512;BME280;73446;0.000;0.000;2023-12-14T10:44:53;98667.66;;;21.27;35.33
83512;BME280;73446;0.000;0.000;2023-12-14T10:47:39;98669.25;;;21.28;35.39
83512;BME280;73446;0.000;0.000;2023-12-14T10:50:29;98675.63;;;21.33;35.17
83512;BME280;73446;0.000;0.000;2023-12-14T10:53:14;98682.56;;;21.34;35.32
83512;BME280;73446;0.000;0.000;2023-12-14T10:55:59;98678.81;;;21.35;35.54
83512;BME280;73446;0.000;0.000;2023-12-14T10:58:48;98691.09;;;21.36;35.63
83512;BME280;73446;0.000;0.000;2023-12-14T11:01:33;98688.16;;;21.37;35.71
83512;BME280;73446;0.000;0.000;2023-12-14T11:04:18;98689.22;;;21.36;35.86
83512;BME280;73446;0.000;0.000;2023-12-14T11:07:04;98699.91;;;21.36;35.47
83512;BME280;73446;0.000;0.000;2023-12-14T11:09:48;98695.88;;;21.39;35.53
83512;BME280;73446;0.000;0.000;2023-12-14T11:12:33;98705.78;;;21.38;35.30
83512;BME280;73446;0.000;0.000;2023-12-14T11:15:21;98710.31;;;21.38;35.54
83512;BME280;73446;0.000;0.000;2023-12-14T11:21:00;98708.16;;;21.40;35.20
83512;BME280;73446;0.000;0.000;2023-12-14T11:23:44;98713.78;;;21.38;35.25
83512;BME280;73446;0.000;0.000;2023-12-14T11:26:29;98716.19;;;21.40;34.98
83512;BME280;73446;0.000;0.000;2023-12-14T11:29:13;98726.88;;;21.40;34.83
83512;BME280;73446;0.000;0.000;2023-12-14T11:31:57;98731.16;;;21.41;34.79
83512;BME280;73446;0.000;0.000;2023-12-14T11:34:41;98727.41;;;21.42;34.64
83512;BME280;73446;0.000;0.000;2023-12-14T11:37:26;98730.88;;;21.42;34.59
83512;BME280;73446;0.000;0.000;2023-12-14T11:40:11;98742.16;;;21.34;35.13
83512;BME280;73446;0.000;0.000;2023-12-14T11:43:01;98740.97;;;21.21;35.61
83512;BME280;73446;0.000;0.000;2023-12-14T11:45:50;98751.09;;;21.24;35.99
83512;BME280;73446;0.000;0.000;2023-12-14T11:48:34;98751.28;;;21.33;35.37
83512;BME280;73446;0.000;0.000;2023-12-14T11:51:19;98756.84;;;21.37;35.28
83512;BME280;73446;0.000;0.000;2023-12-14T11:54:03;98758.44;;;21.38;35.05
83512;BME280;73446;0.000;0.000;2023-12-14T11:56:49;98761.63;;;21.40;35.11
83512;BME280;73446;0.000;0.000;2023-12-14T11:59:33;98761.63;;;21.40;34.96
83512;BME280;73446;0.000;0.000;2023-12-14T12:02:23;98764.03;;;21.41;35.01
83512;BME280;73446;0.000;0.000;2023-12-14T12:05:09;98758.69;;;21.41;35.04
83512;BME280;73446;0.000;0.000;2023-12-14T12:07:57;98762.16;;;21.42;35.06
83512;BME280;73446;0.000;0.000;2023-12-14T12:10:42;98763.75;;;21.43;34.85
83512;BME280;73446;0.000;0.000;2023-12-14T12:13:27;98769.88;;;21.43;35.01
83512;BME280;73446;0.000;0.000;2023-12-14T12:16:11;98769.09;;;21.43;35.18
83512;BME280;73446;0.000;0.000;2023-12-14T12:18:55;98770.72;;;21.39;35.17
83512;BME280;73446;0.000;0.000;2023-12-14T12:21:39;98772.88;;;21.37;35.39
83512;BME280;73446;0.000;0.000;2023-12-14T12:24:23;98778.47;;;21.40;35.37
83512;BME280;73446;0.000;0.000;2023-12-14T12:27:07;98781.06;;;21.45;35.18
83512;BME280;73446;0.000;0.000;2023-12-14T12:29:52;98781.88;;;21.46;35.48
83512;BME280;73446;0.000;0.000;2023-12-14T12:32:38;98780.22;;;21.50;36.34
83512;BME280;73446;0.000;0.000;2023-12-14T12:35:23;98786.91;;;21.52;36.55
83512;BME280;73446;0.000;0.000;2023-12-14T12:38:07;98788.50;;;21.53;37.04
83512;BME280;73446;0.000;0.000;2023-12-14T12:40:51;98788.50;;;21.53;37.10
83512;BME280;73446;0.000;0.000;2023-12-14T12:43:35;98786.63;;;21.54;36.94
83512;BME280;73446;0.000;0.000;2023-12-14T12:46:19;98790.09;;;21.54;37.03
83512;BME280;73446;0.000;0.000;2023-12-14T12:49:04;98783.94;;;21.54;36.83
83512;BME280;73446;0.000;0.000;2023-12-14T12:51:49;98790.38;;;21.53;37.02
83512;BME280;73446;0.000;0.000;2023-12-14T12:54:34;98794.91;;;21.52;36.71
83512;BME280;73446;0.000;0.000;2023-12-14T12:57:17;98799.19;;;21.53;37.32
83512;BME280;73446;0.000;0.000;2023-12-14T13:00:02;98797.88;;;21.51;37.61
83512;BME280;73446;0.000;0.000;2023-12-14T13:02:52;98794.97;;;21.47;38.23
83512;BME280;73446;0.000;0.000;2023-12-14T13:05:36;98794.69;;;21.49;37.78
83512;BME280;73446;0.000;0.000;2023-12-14T13:08:20;98799.72;;;21.55;38.15
83512;BME280;73446;0.000;0.000;2023-12-14T13:11:06;98801.50;;;21.60;38.32
83512;BME280;73446;0.000;0.000;2023-12-14T13:13:50;98818.34;;;21.60;38.68
83512;BME280;73446;0.000;0.000;2023-12-14T13:16:34;98812.13;;;21.70;40.42
83512;BME280;73446;0.000;0.000;2023-12-14T13:19:18;98811.84;;;21.72;41.15
83512;BME280;73446;0.000;0.000;2023-12-14T13:22:02;98819.28;;;21.75;40.69
83512;BME280;73446;0.000;0.000;2023-12-14T13:24:46;98820.59;;;21.77;40.36
83512;BME280;73446;0.000;0.000;2023-12-14T13:27:30;98820.88;;;21.76;40.55
83512;BME280;73446;0.000;0.000;2023-12-14T13:30:15;98834.47;;;21.79;40.15
83512;BME280;73446;0.000;0.000;2023-12-14T13:33:01;98837.16;;;21.79;39.98
83512;BME280;73446;0.000;0.000;2023-12-14T13:35:45;98843.84;;;21.77;41.07
83512;BME280;73446;0.000;0.000;2023-12-14T13:38:30;98838.22;;;21.78;40.52
83512;BME280;73446;0.000;0.000;2023-12-14T13:41:17;98843.81;;;21.82;40.81
83512;BME280;73446;0.000;0.000;2023-12-14T13:44:01;98853.72;;;21.81;40.46
83512;BME280;73446;0.000;0.000;2023-12-14T13:46:45;98867.88;;;21.82;40.22
83512;BME280;73446;0.000;0.000;2023-12-14T13:49:30;98874.03;;;21.82;39.50
83512;BME280;73446;0.000;0.000;2023-12-14T13:52:14;98870.28;;;21.83;38.93
83512;BME280;73446;0.000;0.000;2023-12-14T13:54:58;98876.44;;;21.84;38.50
83512;BME280;73446;0.000;0.000;2023-12-14T13:57:42;98884.75;;;21.82;38.58
83512;BME280;73446;0.000;0.000;2023-12-14T14:00:27;98886.63;;;21.82;38.81
83512;BME280;73446;0.000;0.000;2023-12-14T14:03:11;98890.13;;;21.77;39.04
83512;BME280;73446;0.000;0.000;2023-12-14T14:05:55;98890.41;;;21.76;38.95
83512;BME280;73446;0.000;0.000;2023-12-14T14:08:39;98905.63;;;21.80;39.23
83512;BME280;73446;0.000;0.000;2023-12-14T14:11:23;98908.81;;;21.82;39.34
83512;BME280;73446;0.000;0.000;2023-12-14T14:14:08;98903.47;;;21.82;39.25
83512;BME280;73446;0.000;0.000;2023-12-14T14:16:52;98908.25;;;21.85;38.90
83512;BME280;73446;0.000;0.000;2023-12-14T14:19:35;98914.94;;;21.88;39.30
83512;BME280;73446;0.000;0.000;2023-12-14T14:22:20;98913.31;;;21.87;39.60
83512;BME280;73446;0.000;0.000;2023-12-14T14:25:06;98927.25;;;21.84;41.33
83512;BME280;73446;0.000;0.000;2023-12-14T14:27:51;98925.91;;;21.86;40.70
83512;BME280;73446;0.000;0.000;2023-12-14T14:30:35;98929.00;;;21.98;40.95
83512;BME280;73446;0.000;0.000;2023-12-14T14:33:19;98946.41;;;21.96;41.39
83512;BME280;73446;0.000;0.000;2023-12-14T14:36:03;98941.63;;;21.93;39.41
83512;BME280;73446;0.000;0.000;2023-12-14T14:38:49;98950.22;;;21.90;40.04
83512;BME280;73446;0.000;0.000;2023-12-14T14:41:34;98962.22;;;21.92;40.76
83512;BME280;73446;0.000;0.000;2023-12-14T14:44:18;98961.94;;;21.94;40.60
83512;BME280;73446;0.000;0.000;2023-12-14T14:47:03;98969.69;;;21.95;40.70